sensor_id;sensor_type;location;lat;lon;timestamp;P1;durP1;ratioP1;P2;durP2;ratioP2
10711;SDS011;5407;51.234;6.804;2024-02-16T00:02:14;3.17;;;1.90;;
10711;SDS011;5407;51.234;6.804;2024-02-16T00:04:41;3.30;;;2.27;;
10711;SDS011;5407;51.234;6.804;2024-02-16T00:07:08;4.87;;;2.00;;
10711;SDS011;5407;51.234;6.804;2024-02-16T00:09:35;3.30;;;2.00;;
10711;SDS011;5407;51.234;6.804;2024-02-16T00:12:04;3.27;;;1.80;;
10711;SDS011;5407;51.234;6.804;2024-02-16T00:14:31;3.10;;;2.00;;
10711;SDS011;5407;51.234;6.804;2024-02-16T00:16:59;3.83;;;1.73;;
10711;SDS011;5407;51.234;6.804;2024-02-16T00:19:27;4.43;;;2.20;;
10711;SDS011;5407;51.234;6.804;2024-02-16T00:21:54;4.47;;;2.07;;
10711;SDS011;5407;51.234;6.804;2024-02-16T00:24:21;5.07;;;2.10;;
10711;SDS011;5407;51.234;6.804;2024-02-16T00:26:47;4.97;;;2.40;;
10711;SDS011;5407;51.234;6.804;2024-02-16T00:29:16;3.67;;;1.90;;
10711;SDS011;5407;51.234;6.804;2024-02-16T00:31:44;3.47;;;1.80;;
10711;SDS011;5407;51.234;6.804;2024-02-16T00:34:11;4.47;;;2.10;;
10711;SDS011;5407;51.234;6.804;2024-02-16T00:36:38;5.50;;;2.20;;
10711;SDS011;5407;51.234;6.804;2024-02-16T00:39:04;5.47;;;1.90;;
10711;SDS011;5407;51.234;6.804;2024-02-16T00:41:31;7.40;;;2.17;;
10711;SDS011;5407;51.234;6.804;2024-02-16T00:43:58;5.97;;;1.90;;
10711;SDS011;5407;51.234;6.804;2024-02-16T00:46:27;3.37;;;2.20;;
10711;SDS011;5407;51.234;6.804;2024-02-16T00:48:54;4.00;;;2.17;;
10711;SDS011;5407;51.234;6.804;2024-02-16T00:51:20;3.70;;;2.07;;
10711;SDS011;5407;51.234;6.804;2024-02-16T00:53:48;6.57;;;2.10;;
10711;SDS011;5407;51.234;6.804;2024-02-16T00:56:15;3.43;;;2.10;;
10711;SDS011;5407;51.234;6.804;2024-02-16T00:58:42;6.20;;;2.13;;
10711;SDS011;5407;51.234;6.804;2024-02-16T01:01:09;3.87;;;1.90;;
10711;SDS011;5407;51.234;6.804;2024-02-16T01:03:39;3.63;;;1.77;;
10711;SDS011;5407;51.234;6.804;2024-02-16T01:06:06;4.50;;;2.17;;
10711;SDS011;5407;51.234;6.804;2024-02-16T01:08:34;4.03;;;1.90;;
10711;SDS011;5407;51.234;6.804;2024-02-16T01:11:01;5.70;;;2.10;;
10711;SDS011;5407;51.234;6.804;2024-02-16T01:13:27;4.67;;;1.60;;
10711;SDS011;5407;51.234;6.804;2024-02-16T01:15:54;3.13;;;2.20;;
10711;SDS011;5407;51.234;6.804;2024-02-16T01:18:21;2.90;;;1.80;;
10711;SDS011;5407;51.234;6.804;2024-02-16T01:20:49;3.60;;;1.80;;
10711;SDS011;5407;51.234;6.804;2024-02-16T01:23:16;4.70;;;1.77;;
10711;SDS011;5407;51.234;6.804;2024-02-16T01:25:43;4.77;;;2.40;;
10711;SDS011;5407;51.234;6.804;2024-02-16T01:28:10;5.80;;;2.00;;
10711;SDS011;5407;51.234;6.804;2024-02-16T01:30:37;5.13;;;2.33;;
10711;SDS011;5407;51.234;6.804;2024-02-16T01:33:04;3.70;;;2.00;;
10711;SDS011;5407;51.234;6.804;2024-02-16T01:35:32;7.80;;;2.33;;
10711;SDS011;5407;51.234;6.804;2024-02-16T01:38:00;4.50;;;1.90;;
10711;SDS011;5407;51.234;6.804;2024-02-16T01:40:28;2.87;;;2.17;;
10711;SDS011;5407;51.234;6.804;2024-02-16T01:42:55;3.23;;;1.90;;
10711;SDS011;5407;51.234;6.804;2024-02-16T01:45:21;4.00;;;2.30;;
10711;SDS011;5407;51.234;6.804;2024-02-16T01:47:49;4.37;;;2.00;;
10711;SDS011;5407;51.234;6.804;2024-02-16T01:50:17;4.60;;;1.80;;
10711;SDS011;5407;51.234;6.804;2024-02-16T01:52:46;7.03;;;2.20;;
10711;SDS011;5407;51.234;6.804;2024-02-16T01:55:15;3.33;;;1.80;;
10711;SDS011;5407;51.234;6.804;2024-02-16T01:57:43;4.67;;;1.90;;
10711;SDS011;5407;51.234;6.804;2024-02-16T02:00:11;5.83;;;2.23;;
10711;SDS011;5407;51.234;6.804;2024-02-16T02:02:40;5.30;;;2.00;;
10711;SDS011;5407;51.234;6.804;2024-02-16T02:05:10;6.93;;;2.13;;
10711;SDS011;5407;51.234;6.804;2024-02-16T02:07:37;4.37;;;2.10;;
10711;SDS011;5407;51.234;6.804;2024-02-16T02:10:04;5.70;;;2.10;;
10711;SDS011;5407;51.234;6.804;2024-02-16T02:12:32;5.40;;;2.10;;
10711;SDS011;5407;51.234;6.804;2024-02-16T02:15:00;2.17;;;1.60;;
10711;SDS011;5407;51.234;6.804;2024-02-16T02:17:28;3.37;;;2.10;;
10711;SDS011;5407;51.234;6.804;2024-02-16T02:19:54;4.40;;;2.00;;
10711;SDS011;5407;51.234;6.804;2024-02-16T02:22:23;4.97;;;2.10;;
10711;SDS011;5407;51.234;6.804;2024-02-16T02:24:52;2.33;;;1.77;;
10711;SDS011;5407;51.234;6.804;2024-02-16T02:27:20;4.20;;;2.00;;
10711;SDS011;5407;51.234;6.804;2024-02-16T02:29:47;2.80;;;1.93;;
10711;SDS011;5407;51.234;6.804;2024-02-16T02:32:14;4.27;;;2.00;;
10711;SDS011;5407;51.234;6.804;2024-02-16T02:34:41;4.47;;;2.27;;
10711;SDS011;5407;51.234;6.804;2024-02-16T02:37:08;5.53;;;1.87;;
10711;SDS011;5407;51.234;6.804;2024-02-16T02:39:36;6.33;;;1.87;;
10711;SDS011;5407;51.234;6.804;2024-02-16T02:42:04;3.60;;;2.23;;
10711;SDS011;5407;51.234;6.804;2024-02-16T02:44:30;2.87;;;1.87;;
10711;SDS011;5407;51.234;6.804;2024-02-16T02:46:57;4.43;;;1.97;;
10711;SDS011;5407;51.234;6.804;2024-02-16T02:49:24;4.80;;;2.10;;
10711;SDS011;5407;51.234;6.804;2024-02-16T02:51:51;3.63;;;2.10;;
10711;SDS011;5407;51.234;6.804;2024-02-16T02:54:18;4.20;;;2.17;;
10711;SDS011;5407;51.234;6.804;2024-02-16T02:56:46;5.03;;;2.03;;
10711;SDS011;5407;51.234;6.804;2024-02-16T02:59:13;5.30;;;2.10;;
10711;SDS011;5407;51.234;6.804;2024-02-16T03:01:39;4.43;;;2.13;;
10711;SDS011;5407;51.234;6.804;2024-02-16T03:04:06;6.23;;;2.20;;
10711;SDS011;5407;51.234;6.804;2024-02-16T03:06:34;6.00;;;2.37;;
10711;SDS011;5407;51.234;6.804;2024-02-16T03:09:01;3.57;;;2.00;;
10711;SDS011;5407;51.234;6.804;2024-02-16T03:11:28;4.93;;;2.00;;
10711;SDS011;5407;51.234;6.804;2024-02-16T03:13:56;3.13;;;1.90;;
10711;SDS011;5407;51.234;6.804;2024-02-16T03:16:23;2.83;;;2.00;;
10711;SDS011;5407;51.234;6.804;2024-02-16T03:18:50;5.03;;;2.10;;
10711;SDS011;5407;51.234;6.804;2024-02-16T03:21:17;4.80;;;2.40;;
10711;SDS011;5407;51.234;6.804;2024-02-16T03:23:44;4.37;;;1.90;;
10711;SDS011;5407;51.234;6.804;2024-02-16T03:26:14;3.33;;;2.20;;
10711;SDS011;5407;51.234;6.804;2024-02-16T03:28:43;2.93;;;2.00;;
10711;SDS011;5407;51.234;6.804;2024-02-16T03:31:16;3.83;;;2.27;;
10711;SDS011;5407;51.234;6.804;2024-02-16T03:33:43;4.10;;;2.27;;
10711;SDS011;5407;51.234;6.804;2024-02-16T03:36:10;5.90;;;2.00;;
10711;SDS011;5407;51.234;6.804;2024-02-16T03:38:38;2.63;;;1.90;;
10711;SDS011;5407;51.234;6.804;2024-02-16T03:41:07;4.40;;;1.90;;
10711;SDS011;5407;51.234;6.804;2024-02-16T03:43:34;5.53;;;2.20;;
10711;SDS011;5407;51.234;6.804;2024-02-16T03:46:01;6.57;;;2.23;;
10711;SDS011;5407;51.234;6.804;2024-02-16T03:48:30;4.13;;;1.97;;
10711;SDS011;5407;51.234;6.804;2024-02-16T03:50:56;4.80;;;2.07;;
10711;SDS011;5407;51.234;6.804;2024-02-16T03:53:24;3.93;;;2.37;;
10711;SDS011;5407;51.234;6.804;2024-02-16T03:55:50;3.27;;;2.03;;
10711;SDS011;5407;51.234;6.804;2024-02-16T03:58:17;3.70;;;2.07;;
10711;SDS011;5407;51.234;6.804;2024-02-16T04:00:44;3.60;;;2.10;;
10711;SDS011;5407;51.234;6.804;2024-02-16T04:03:11;3.90;;;2.10;;
10711;SDS011;5407;51.234;6.804;2024-02-16T04:05:39;4.03;;;2.17;;
10711;SDS011;5407;51.234;6.804;2024-02-16T04:08:06;4.03;;;2.20;;
10711;SDS011;5407;51.234;6.804;2024-02-16T04:10:33;3.63;;;2.20;;
10711;SDS011;5407;51.234;6.804;2024-02-16T04:13:00;3.33;;;2.10;;
10711;SDS011;5407;51.234;6.804;2024-02-16T04:15:28;5.53;;;2.30;;
10711;SDS011;5407;51.234;6.804;2024-02-16T04:17:54;6.27;;;2.17;;
10711;SDS011;5407;51.234;6.804;2024-02-16T04:20:22;3.93;;;2.13;;
10711;SDS011;5407;51.234;6.804;2024-02-16T04:22:50;6.73;;;2.40;;
10711;SDS011;5407;51.234;6.804;2024-02-16T04:25:17;5.90;;;2.30;;
10711;SDS011;5407;51.234;6.804;2024-02-16T04:27:43;4.20;;;2.30;;
10711;SDS011;5407;51.234;6.804;2024-02-16T04:30:10;4.17;;;2.20;;
10711;SDS011;5407;51.234;6.804;2024-02-16T04:32:37;5.77;;;2.20;;
10711;SDS011;5407;51.234;6.804;2024-02-16T04:35:05;3.47;;;2.10;;
10711;SDS011;5407;51.234;6.804;2024-02-16T04:37:32;3.03;;;2.03;;
10711;SDS011;5407;51.234;6.804;2024-02-16T04:40:00;3.80;;;2.20;;
10711;SDS011;5407;51.234;6.804;2024-02-16T04:42:27;2.90;;;2.00;;
10711;SDS011;5407;51.234;6.804;2024-02-16T04:44:54;5.90;;;2.40;;
10711;SDS011;5407;51.234;6.804;2024-02-16T04:47:21;3.80;;;2.20;;
10711;SDS011;5407;51.234;6.804;2024-02-16T04:49:48;6.87;;;2.37;;
10711;SDS011;5407;51.234;6.804;2024-02-16T04:52:15;4.60;;;2.10;;
10711;SDS011;5407;51.234;6.804;2024-02-16T04:54:42;3.30;;;2.13;;
10711;SDS011;5407;51.234;6.804;2024-02-16T04:57:10;4.97;;;2.40;;
10711;SDS011;5407;51.234;6.804;2024-02-16T04:59:37;4.40;;;2.40;;
10711;SDS011;5407;51.234;6.804;2024-02-16T05:02:03;4.67;;;2.23;;
10711;SDS011;5407;51.234;6.804;2024-02-16T05:04:32;3.87;;;2.20;;
10711;SDS011;5407;51.234;6.804;2024-02-16T05:06:59;4.57;;;2.30;;
10711;SDS011;5407;51.234;6.804;2024-02-16T05:09:26;4.80;;;2.30;;
10711;SDS011;5407;51.234;6.804;2024-02-16T05:11:53;4.27;;;2.40;;
10711;SDS011;5407;51.234;6.804;2024-02-16T05:14:21;5.17;;;2.77;;
10711;SDS011;5407;51.234;6.804;2024-02-16T05:16:49;4.27;;;2.60;;
10711;SDS011;5407;51.234;6.804;2024-02-16T05:19:16;4.87;;;2.33;;
10711;SDS011;5407;51.234;6.804;2024-02-16T05:21:43;7.33;;;2.60;;
10711;SDS011;5407;51.234;6.804;2024-02-16T05:24:10;4.30;;;2.50;;
10711;SDS011;5407;51.234;6.804;2024-02-16T05:26:37;5.87;;;2.67;;
10711;SDS011;5407;51.234;6.804;2024-02-16T05:29:04;4.33;;;2.50;;
10711;SDS011;5407;51.234;6.804;2024-02-16T05:31:32;4.93;;;2.30;;
10711;SDS011;5407;51.234;6.804;2024-02-16T05:33:59;4.53;;;2.57;;
10711;SDS011;5407;51.234;6.804;2024-02-16T05:36:24;7.80;;;2.90;;
10711;SDS011;5407;51.234;6.804;2024-02-16T05:38:55;7.13;;;2.57;;
10711;SDS011;5407;51.234;6.804;2024-02-16T05:41:31;5.97;;;2.87;;
10711;SDS011;5407;51.234;6.804;2024-02-16T05:43:58;5.60;;;2.30;;
10711;SDS011;5407;51.234;6.804;2024-02-16T05:46:26;5.27;;;2.77;;
10711;SDS011;5407;51.234;6.804;2024-02-16T05:48:54;7.07;;;2.53;;
10711;SDS011;5407;51.234;6.804;2024-02-16T05:51:21;2.97;;;2.20;;
10711;SDS011;5407;51.234;6.804;2024-02-16T05:53:48;3.83;;;2.43;;
10711;SDS011;5407;51.234;6.804;2024-02-16T05:56:15;3.57;;;2.57;;
10711;SDS011;5407;51.234;6.804;2024-02-16T05:58:41;3.90;;;2.40;;
10711;SDS011;5407;51.234;6.804;2024-02-16T06:01:08;7.87;;;2.33;;
10711;SDS011;5407;51.234;6.804;2024-02-16T06:03:37;4.00;;;2.40;;
10711;SDS011;5407;51.234;6.804;2024-02-16T06:06:08;3.50;;;2.30;;
10711;SDS011;5407;51.234;6.804;2024-02-16T06:08:35;5.40;;;2.50;;
10711;SDS011;5407;51.234;6.804;2024-02-16T06:11:01;7.20;;;2.60;;
10711;SDS011;5407;51.234;6.804;2024-02-16T06:13:29;5.27;;;2.70;;
10711;SDS011;5407;51.234;6.804;2024-02-16T06:15:56;5.47;;;2.80;;
10711;SDS011;5407;51.234;6.804;2024-02-16T06:18:23;4.80;;;2.70;;
10711;SDS011;5407;51.234;6.804;2024-02-16T06:20:50;6.63;;;2.57;;
10711;SDS011;5407;51.234;6.804;2024-02-16T06:23:18;5.53;;;2.50;;
10711;SDS011;5407;51.234;6.804;2024-02-16T06:25:45;6.87;;;2.60;;
10711;SDS011;5407;51.234;6.804;2024-02-16T06:28:12;4.43;;;2.37;;
10711;SDS011;5407;51.234;6.804;2024-02-16T06:30:39;5.33;;;2.70;;
10711;SDS011;5407;51.234;6.804;2024-02-16T06:33:06;4.13;;;2.40;;
10711;SDS011;5407;51.234;6.804;2024-02-16T06:35:32;6.03;;;2.53;;
10711;SDS011;5407;51.234;6.804;2024-02-16T06:37:59;5.33;;;2.60;;
10711;SDS011;5407;51.234;6.804;2024-02-16T06:40:27;3.93;;;2.70;;
10711;SDS011;5407;51.234;6.804;2024-02-16T06:42:55;5.37;;;2.50;;
10711;SDS011;5407;51.234;6.804;2024-02-16T06:45:21;6.90;;;2.80;;
10711;SDS011;5407;51.234;6.804;2024-02-16T06:47:48;6.00;;;2.80;;
10711;SDS011;5407;51.234;6.804;2024-02-16T06:50:15;6.37;;;3.00;;
10711;SDS011;5407;51.234;6.804;2024-02-16T06:52:42;3.53;;;2.37;;
10711;SDS011;5407;51.234;6.804;2024-02-16T06:55:09;4.17;;;2.60;;
10711;SDS011;5407;51.234;6.804;2024-02-16T06:57:37;5.43;;;2.70;;
10711;SDS011;5407;51.234;6.804;2024-02-16T07:00:04;5.83;;;3.27;;
10711;SDS011;5407;51.234;6.804;2024-02-16T07:02:34;7.73;;;3.07;;
10711;SDS011;5407;51.234;6.804;2024-02-16T07:05:01;5.83;;;3.00;;
10711;SDS011;5407;51.234;6.804;2024-02-16T07:07:28;8.47;;;3.20;;
10711;SDS011;5407;51.234;6.804;2024-02-16T07:09:54;10.57;;;3.17;;
10711;SDS011;5407;51.234;6.804;2024-02-16T07:12:22;4.57;;;2.53;;
10711;SDS011;5407;51.234;6.804;2024-02-16T07:14:50;8.53;;;3.57;;
10711;SDS011;5407;51.234;6.804;2024-02-16T07:17:17;7.67;;;3.00;;
10711;SDS011;5407;51.234;6.804;2024-02-16T07:19:44;5.33;;;2.87;;
10711;SDS011;5407;51.234;6.804;2024-02-16T07:22:10;7.50;;;3.00;;
10711;SDS011;5407;51.234;6.804;2024-02-16T07:24:37;5.57;;;3.00;;
10711;SDS011;5407;51.234;6.804;2024-02-16T07:27:04;5.17;;;2.60;;
10711;SDS011;5407;51.234;6.804;2024-02-16T07:29:31;4.57;;;2.90;;
10711;SDS011;5407;51.234;6.804;2024-02-16T07:32:00;4.63;;;2.70;;
10711;SDS011;5407;51.234;6.804;2024-02-16T07:34:28;7.83;;;2.93;;
10711;SDS011;5407;51.234;6.804;2024-02-16T07:36:55;4.40;;;2.70;;
10711;SDS011;5407;51.234;6.804;2024-02-16T07:39:23;5.47;;;2.57;;
10711;SDS011;5407;51.234;6.804;2024-02-16T07:41:50;4.33;;;2.70;;
10711;SDS011;5407;51.234;6.804;2024-02-16T07:44:17;4.73;;;3.00;;
10711;SDS011;5407;51.234;6.804;2024-02-16T07:46:44;4.90;;;2.70;;
10711;SDS011;5407;51.234;6.804;2024-02-16T07:49:12;9.33;;;2.80;;
10711;SDS011;5407;51.234;6.804;2024-02-16T07:51:39;6.60;;;2.80;;
10711;SDS011;5407;51.234;6.804;2024-02-16T07:54:07;8.03;;;2.70;;
10711;SDS011;5407;51.234;6.804;2024-02-16T07:56:34;5.67;;;2.83;;
10711;SDS011;5407;51.234;6.804;2024-02-16T07:59:01;8.00;;;3.07;;
10711;SDS011;5407;51.234;6.804;2024-02-16T08:01:27;3.73;;;2.40;;
10711;SDS011;5407;51.234;6.804;2024-02-16T08:03:54;10.87;;;2.70;;
10711;SDS011;5407;51.234;6.804;2024-02-16T08:06:26;5.97;;;2.93;;
10711;SDS011;5407;51.234;6.804;2024-02-16T08:08:53;3.63;;;2.50;;
10711;SDS011;5407;51.234;6.804;2024-02-16T08:11:20;5.93;;;2.37;;
10711;SDS011;5407;51.234;6.804;2024-02-16T08:13:47;4.60;;;2.70;;
10711;SDS011;5407;51.234;6.804;2024-02-16T08:16:13;6.23;;;2.90;;
10711;SDS011;5407;51.234;6.804;2024-02-16T08:18:43;5.37;;;2.80;;
10711;SDS011;5407;51.234;6.804;2024-02-16T08:21:10;3.77;;;2.73;;
10711;SDS011;5407;51.234;6.804;2024-02-16T08:23:39;3.57;;;2.33;;
10711;SDS011;5407;51.234;6.804;2024-02-16T08:26:05;3.43;;;2.50;;
10711;SDS011;5407;51.234;6.804;2024-02-16T08:28:32;7.37;;;2.67;;
10711;SDS011;5407;51.234;6.804;2024-02-16T08:30:59;5.63;;;2.80;;
10711;SDS011;5407;51.234;6.804;2024-02-16T08:33:26;3.97;;;2.33;;
10711;SDS011;5407;51.234;6.804;2024-02-16T08:35:53;7.30;;;2.73;;
10711;SDS011;5407;51.234;6.804;2024-02-16T08:38:19;4.83;;;2.43;;
10711;SDS011;5407;51.234;6.804;2024-02-16T08:40:48;6.13;;;2.77;;
10711;SDS011;5407;51.234;6.804;2024-02-16T08:43:17;5.50;;;2.63;;
10711;SDS011;5407;51.234;6.804;2024-02-16T08:45:44;5.83;;;3.00;;
10711;SDS011;5407;51.234;6.804;2024-02-16T08:48:10;6.43;;;2.87;;
10711;SDS011;5407;51.234;6.804;2024-02-16T08:50:37;4.60;;;2.73;;
10711;SDS011;5407;51.234;6.804;2024-02-16T08:53:04;5.13;;;2.70;;
10711;SDS011;5407;51.234;6.804;2024-02-16T08:55:31;5.83;;;2.50;;
10711;SDS011;5407;51.234;6.804;2024-02-16T08:57:59;7.07;;;2.97;;
10711;SDS011;5407;51.234;6.804;2024-02-16T09:00:26;4.90;;;2.90;;
10711;SDS011;5407;51.234;6.804;2024-02-16T09:02:53;4.67;;;2.50;;
10711;SDS011;5407;51.234;6.804;2024-02-16T09:05:20;4.70;;;2.63;;
10711;SDS011;5407;51.234;6.804;2024-02-16T09:07:47;7.70;;;2.87;;
10711;SDS011;5407;51.234;6.804;2024-02-16T09:10:14;5.93;;;2.90;;
10711;SDS011;5407;51.234;6.804;2024-02-16T09:12:41;6.63;;;2.93;;
10711;SDS011;5407;51.234;6.804;2024-02-16T09:15:09;8.10;;;2.93;;
10711;SDS011;5407;51.234;6.804;2024-02-16T09:17:37;7.07;;;2.70;;
10711;SDS011;5407;51.234;6.804;2024-02-16T09:20:04;8.33;;;2.83;;
10711;SDS011;5407;51.234;6.804;2024-02-16T09:22:33;4.93;;;2.60;;
10711;SDS011;5407;51.234;6.804;2024-02-16T09:25:01;8.37;;;3.20;;
10711;SDS011;5407;51.234;6.804;2024-02-16T09:27:28;5.73;;;3.00;;
10711;SDS011;5407;51.234;6.804;2024-02-16T09:29:55;7.80;;;2.63;;
10711;SDS011;5407;51.234;6.804;2024-02-16T09:32:23;8.40;;;2.73;;
10711;SDS011;5407;51.234;6.804;2024-02-16T09:34:50;8.43;;;2.80;;
10711;SDS011;5407;51.234;6.804;2024-02-16T09:37:17;7.17;;;3.07;;
10711;SDS011;5407;51.234;6.804;2024-02-16T09:39:46;11.37;;;2.87;;
10711;SDS011;5407;51.234;6.804;2024-02-16T09:42:13;5.07;;;2.87;;
10711;SDS011;5407;51.234;6.804;2024-02-16T09:44:41;8.10;;;3.03;;
10711;SDS011;5407;51.234;6.804;2024-02-16T09:47:09;8.33;;;3.27;;
10711;SDS011;5407;51.234;6.804;2024-02-16T09:49:40;4.70;;;3.00;;
10711;SDS011;5407;51.234;6.804;2024-02-16T09:52:08;7.37;;;3.30;;
10711;SDS011;5407;51.234;6.804;2024-02-16T09:54:37;5.07;;;3.00;;
10711;SDS011;5407;51.234;6.804;2024-02-16T09:57:05;9.17;;;3.30;;
10711;SDS011;5407;51.234;6.804;2024-02-16T09:59:32;7.67;;;2.50;;
10711;SDS011;5407;51.234;6.804;2024-02-16T10:02:00;6.07;;;3.20;;
10711;SDS011;5407;51.234;6.804;2024-02-16T10:04:27;8.30;;;3.40;;
10711;SDS011;5407;51.234;6.804;2024-02-16T10:06:55;7.53;;;3.23;;
10711;SDS011;5407;51.234;6.804;2024-02-16T10:09:24;5.80;;;2.67;;
10711;SDS011;5407;51.234;6.804;2024-02-16T10:11:51;7.10;;;3.17;;
10711;SDS011;5407;51.234;6.804;2024-02-16T10:14:18;6.40;;;3.00;;
10711;SDS011;5407;51.234;6.804;2024-02-16T10:16:45;8.27;;;3.33;;
10711;SDS011;5407;51.234;6.804;2024-02-16T10:19:13;6.33;;;2.97;;
10711;SDS011;5407;51.234;6.804;2024-02-16T10:21:40;8.93;;;3.53;;
10711;SDS011;5407;51.234;6.804;2024-02-16T10:24:09;7.50;;;3.40;;
10711;SDS011;5407;51.234;6.804;2024-02-16T10:26:40;7.53;;;3.20;;
10711;SDS011;5407;51.234;6.804;2024-02-16T10:29:08;10.27;;;3.60;;
10711;SDS011;5407;51.234;6.804;2024-02-16T10:31:36;6.50;;;3.30;;
10711;SDS011;5407;51.234;6.804;2024-02-16T10:34:03;7.00;;;3.20;;
10711;SDS011;5407;51.234;6.804;2024-02-16T10:36:31;8.23;;;3.50;;
10711;SDS011;5407;51.234;6.804;2024-02-16T10:39:00;6.07;;;3.30;;
10711;SDS011;5407;51.234;6.804;2024-02-16T10:41:33;11.30;;;3.47;;
10711;SDS011;5407;51.234;6.804;2024-02-16T10:44:01;6.77;;;3.17;;
10711;SDS011;5407;51.234;6.804;2024-02-16T10:46:28;7.00;;;3.53;;
10711;SDS011;5407;51.234;6.804;2024-02-16T10:48:56;6.97;;;3.30;;
10711;SDS011;5407;51.234;6.804;2024-02-16T10:51:24;9.73;;;3.60;;
10711;SDS011;5407;51.234;6.804;2024-02-16T10:53:55;6.47;;;3.30;;
10711;SDS011;5407;51.234;6.804;2024-02-16T10:56:27;8.37;;;3.17;;
10711;SDS011;5407;51.234;6.804;2024-02-16T10:59:00;9.80;;;3.67;;
10711;SDS011;5407;51.234;6.804;2024-02-16T11:01:31;8.33;;;3.20;;
10711;SDS011;5407;51.234;6.804;2024-02-16T11:04:02;8.47;;;3.60;;
10711;SDS011;5407;51.234;6.804;2024-02-16T11:06:30;8.27;;;3.47;;
10711;SDS011;5407;51.234;6.804;2024-02-16T11:09:01;8.87;;;3.60;;
10711;SDS011;5407;51.234;6.804;2024-02-16T11:11:34;8.80;;;3.43;;
10711;SDS011;5407;51.234;6.804;2024-02-16T11:14:02;7.33;;;3.40;;
10711;SDS011;5407;51.234;6.804;2024-02-16T11:16:29;10.97;;;3.33;;
10711;SDS011;5407;51.234;6.804;2024-02-16T11:18:56;10.47;;;3.60;;
10711;SDS011;5407;51.234;6.804;2024-02-16T11:21:23;8.30;;;3.20;;
10711;SDS011;5407;51.234;6.804;2024-02-16T11:23:50;10.63;;;3.33;;
10711;SDS011;5407;51.234;6.804;2024-02-16T11:26:17;8.13;;;3.50;;
10711;SDS011;5407;51.234;6.804;2024-02-16T11:28:45;12.20;;;3.60;;
10711;SDS011;5407;51.234;6.804;2024-02-16T11:31:12;6.90;;;3.47;;
10711;SDS011;5407;51.234;6.804;2024-02-16T11:33:42;10.57;;;3.40;;
10711;SDS011;5407;51.234;6.804;2024-02-16T11:36:10;8.30;;;3.47;;
10711;SDS011;5407;51.234;6.804;2024-02-16T11:38:37;9.00;;;3.70;;
10711;SDS011;5407;51.234;6.804;2024-02-16T11:41:05;7.90;;;3.87;;
10711;SDS011;5407;51.234;6.804;2024-02-16T11:43:33;10.53;;;4.00;;
10711;SDS011;5407;51.234;6.804;2024-02-16T11:46:11;11.90;;;3.53;;
10711;SDS011;5407;51.234;6.804;2024-02-16T11:48:39;15.17;;;3.97;;
10711;SDS011;5407;51.234;6.804;2024-02-16T11:51:06;9.70;;;3.60;;
10711;SDS011;5407;51.234;6.804;2024-02-16T11:53:33;13.40;;;3.70;;
10711;SDS011;5407;51.234;6.804;2024-02-16T11:56:00;15.70;;;3.93;;
10711;SDS011;5407;51.234;6.804;2024-02-16T11:58:27;11.90;;;3.83;;
10711;SDS011;5407;51.234;6.804;2024-02-16T12:00:54;14.93;;;3.83;;
10711;SDS011;5407;51.234;6.804;2024-02-16T12:03:26;11.50;;;4.70;;
10711;SDS011;5407;51.234;6.804;2024-02-16T12:05:53;11.77;;;4.60;;
10711;SDS011;5407;51.234;6.804;2024-02-16T12:08:21;9.13;;;3.87;;
10711;SDS011;5407;51.234;6.804;2024-02-16T12:10:49;10.33;;;4.20;;
10711;SDS011;5407;51.234;6.804;2024-02-16T12:13:17;10.90;;;4.30;;
10711;SDS011;5407;51.234;6.804;2024-02-16T12:15:45;7.63;;;4.13;;
10711;SDS011;5407;51.234;6.804;2024-02-16T12:18:19;11.47;;;4.23;;
10711;SDS011;5407;51.234;6.804;2024-02-16T12:20:57;6.87;;;3.67;;
10711;SDS011;5407;51.234;6.804;2024-02-16T12:23:24;8.87;;;4.13;;
10711;SDS011;5407;51.234;6.804;2024-02-16T12:25:51;10.47;;;3.90;;
10711;SDS011;5407;51.234;6.804;2024-02-16T12:28:19;11.57;;;4.37;;
10711;SDS011;5407;51.234;6.804;2024-02-16T12:30:47;10.17;;;4.13;;
10711;SDS011;5407;51.234;6.804;2024-02-16T12:33:14;12.50;;;4.27;;
10711;SDS011;5407;51.234;6.804;2024-02-16T12:35:41;9.50;;;4.20;;
10711;SDS011;5407;51.234;6.804;2024-02-16T12:38:10;7.73;;;3.73;;
10711;SDS011;5407;51.234;6.804;2024-02-16T12:40:37;8.43;;;4.27;;
10711;SDS011;5407;51.234;6.804;2024-02-16T12:43:04;9.03;;;4.00;;
10711;SDS011;5407;51.234;6.804;2024-02-16T12:45:34;8.20;;;3.83;;
10711;SDS011;5407;51.234;6.804;2024-02-16T12:48:01;10.47;;;4.07;;
10711;SDS011;5407;51.234;6.804;2024-02-16T12:50:29;9.85;;;4.55;;
10711;SDS011;5407;51.234;6.804;2024-02-16T12:52:55;11.20;;;4.70;;
10711;SDS011;5407;51.234;6.804;2024-02-16T12:55:24;9.30;;;4.27;;
10711;SDS011;5407;51.234;6.804;2024-02-16T12:57:52;10.20;;;4.27;;
10711;SDS011;5407;51.234;6.804;2024-02-16T13:00:19;5.47;;;4.03;;
10711;SDS011;5407;51.234;6.804;2024-02-16T13:02:46;9.37;;;4.13;;
10711;SDS011;5407;51.234;6.804;2024-02-16T13:05:13;9.33;;;4.20;;
10711;SDS011;5407;51.234;6.804;2024-02-16T13:07:40;8.10;;;4.17;;
10711;SDS011;5407;51.234;6.804;2024-02-16T13:10:07;8.33;;;3.77;;
10711;SDS011;5407;51.234;6.804;2024-02-16T13:12:36;11.27;;;4.60;;
10711;SDS011;5407;51.234;6.804;2024-02-16T13:15:04;8.50;;;4.33;;
10711;SDS011;5407;51.234;6.804;2024-02-16T13:17:31;8.67;;;4.27;;
10711;SDS011;5407;51.234;6.804;2024-02-16T13:19:59;8.60;;;4.30;;
10711;SDS011;5407;51.234;6.804;2024-02-16T13:22:32;7.40;;;4.20;;
10711;SDS011;5407;51.234;6.804;2024-02-16T13:24:59;13.37;;;4.87;;
10711;SDS011;5407;51.234;6.804;2024-02-16T13:27:26;10.90;;;4.67;;
10711;SDS011;5407;51.234;6.804;2024-02-16T13:29:54;9.00;;;5.07;;
10711;SDS011;5407;51.234;6.804;2024-02-16T13:32:21;8.90;;;5.00;;
10711;SDS011;5407;51.234;6.804;2024-02-16T13:34:48;7.83;;;4.57;;
10711;SDS011;5407;51.234;6.804;2024-02-16T13:37:15;12.87;;;5.57;;
10711;SDS011;5407;51.234;6.804;2024-02-16T13:39:42;7.70;;;5.00;;
10711;SDS011;5407;51.234;6.804;2024-02-16T13:42:09;9.50;;;5.43;;
10711;SDS011;5407;51.234;6.804;2024-02-16T13:44:36;13.97;;;5.50;;
10711;SDS011;5407;51.234;6.804;2024-02-16T13:47:05;11.53;;;5.40;;
10711;SDS011;5407;51.234;6.804;2024-02-16T13:49:32;8.97;;;5.07;;
10711;SDS011;5407;51.234;6.804;2024-02-16T13:51:59;7.87;;;5.23;;
10711;SDS011;5407;51.234;6.804;2024-02-16T13:54:26;10.77;;;5.27;;
10711;SDS011;5407;51.234;6.804;2024-02-16T13:56:53;7.40;;;5.10;;
10711;SDS011;5407;51.234;6.804;2024-02-16T13:59:20;12.83;;;5.73;;
10711;SDS011;5407;51.234;6.804;2024-02-16T14:01:47;11.57;;;5.90;;
10711;SDS011;5407;51.234;6.804;2024-02-16T14:04:16;11.23;;;6.50;;
10711;SDS011;5407;51.234;6.804;2024-02-16T14:06:43;12.83;;;5.90;;
10711;SDS011;5407;51.234;6.804;2024-02-16T14:09:11;10.10;;;6.63;;
10711;SDS011;5407;51.234;6.804;2024-02-16T14:11:39;12.03;;;6.30;;
10711;SDS011;5407;51.234;6.804;2024-02-16T14:14:08;13.37;;;6.50;;
10711;SDS011;5407;51.234;6.804;2024-02-16T14:16:34;13.83;;;6.83;;
10711;SDS011;5407;51.234;6.804;2024-02-16T14:19:01;9.80;;;6.47;;
10711;SDS011;5407;51.234;6.804;2024-02-16T14:21:30;11.40;;;6.70;;
10711;SDS011;5407;51.234;6.804;2024-02-16T14:23:57;10.17;;;7.20;;
10711;SDS011;5407;51.234;6.804;2024-02-16T14:26:24;9.47;;;7.07;;
10711;SDS011;5407;51.234;6.804;2024-02-16T14:28:51;12.93;;;7.07;;
10711;SDS011;5407;51.234;6.804;2024-02-16T14:31:18;13.13;;;7.37;;
10711;SDS011;5407;51.234;6.804;2024-02-16T14:33:45;16.20;;;7.63;;
10711;SDS011;5407;51.234;6.804;2024-02-16T14:36:13;12.50;;;7.27;;
10711;SDS011;5407;51.234;6.804;2024-02-16T14:38:41;15.63;;;7.50;;
10711;SDS011;5407;51.234;6.804;2024-02-16T14:41:08;9.07;;;6.83;;
10711;SDS011;5407;51.234;6.804;2024-02-16T14:43:34;8.10;;;6.20;;
10711;SDS011;5407;51.234;6.804;2024-02-16T14:46:03;10.63;;;6.70;;
10711;SDS011;5407;51.234;6.804;2024-02-16T14:48:30;11.67;;;6.53;;
10711;SDS011;5407;51.234;6.804;2024-02-16T14:50:57;9.17;;;6.60;;
10711;SDS011;5407;51.234;6.804;2024-02-16T14:53:24;11.50;;;6.87;;
10711;SDS011;5407;51.234;6.804;2024-02-16T14:55:52;8.97;;;6.33;;
10711;SDS011;5407;51.234;6.804;2024-02-16T14:58:19;17.80;;;13.73;;
10711;SDS011;5407;51.234;6.804;2024-02-16T15:00:46;9.93;;;7.73;;
10711;SDS011;5407;51.234;6.804;2024-02-16T15:03:13;12.57;;;8.90;;